createdAt,value
2023-03-11T09:23:58.304Z,72.58
2023-03-11T09:24:58.234Z,69.37
2023-03-11T09:25:58.252Z,69.56
2023-03-11T09:26:58.248Z,68.04
2023-03-11T09:27:58.258Z,66.60
2023-03-11T09:28:58.273Z,67.59
2023-03-11T09:29:58.276Z,67.30
2023-03-11T09:30:58.281Z,65.45
2023-03-11T09:31:58.284Z,64.78
2023-03-11T09:32:58.297Z,64.85
2023-03-11T09:33:58.304Z,65.77
2023-03-11T09:34:58.315Z,65.74
2023-03-11T09:35:58.341Z,65.99
2023-03-11T09:36:58.331Z,65.96
2023-03-11T09:37:58.344Z,66.34
2023-03-11T09:38:58.346Z,65.67
2023-03-11T09:39:58.372Z,66.11
2023-03-11T09:40:58.362Z,66.40
2023-03-11T09:41:59.333Z,66.85
2023-03-11T09:42:58.395Z,67.29
2023-03-11T09:43:58.405Z,68.24
2023-03-11T09:44:58.484Z,68.87
2023-03-11T09:45:58.407Z,68.71
2023-03-11T09:46:58.469Z,69.48
2023-03-11T09:47:58.423Z,70.33
2023-03-11T09:48:58.418Z,70.37
2023-03-11T09:49:58.441Z,69.64
2023-03-11T09:50:58.444Z,68.72
2023-03-11T09:51:58.456Z,68.38
2023-03-11T09:52:58.459Z,68.28
2023-03-11T09:53:58.462Z,67.83
2023-03-11T09:54:58.468Z,67.65
2023-03-11T09:55:58.496Z,66.63
2023-03-11T09:56:58.482Z,66.53
2023-03-11T09:57:58.494Z,65.96
2023-03-11T09:58:58.506Z,64.85
2023-03-11T09:59:58.521Z,64.34
2023-03-11T10:00:58.524Z,63.83
2023-03-11T10:01:58.589Z,63.70
2023-03-11T10:02:58.624Z,64.34
2023-03-11T10:03:58.552Z,64.69
2023-03-11T10:04:58.558Z,64.97
2023-03-11T10:05:58.567Z,65.61
2023-03-11T10:06:58.585Z,65.95
2023-03-11T10:07:58.592Z,65.86
2023-03-11T10:08:58.595Z,66.87
2023-03-11T10:09:58.618Z,67.63
2023-03-11T10:10:58.619Z,68.07
2023-03-11T10:11:58.644Z,68.93
2023-03-11T10:12:58.636Z,69.94
2023-03-11T10:13:58.633Z,70.54
2023-03-11T10:14:58.645Z,70.74
2023-03-11T10:15:58.650Z,71.22
2023-03-11T10:16:58.660Z,70.87
2023-03-11T10:17:58.669Z,69.73
2023-03-11T10:18:58.674Z,70.26
2023-03-11T10:19:58.674Z,70.64
2023-03-11T10:20:58.684Z,70.64
2023-03-11T10:21:58.698Z,70.36
2023-03-11T10:22:58.693Z,70.45
2023-03-11T10:23:58.711Z,71.08
2023-03-11T10:24:58.709Z,70.99
2023-03-11T10:25:58.718Z,71.27
2023-03-11T10:26:58.730Z,71.37
2023-03-11T10:27:58.752Z,71.52
2023-03-11T10:28:58.739Z,71.90
2023-03-11T10:29:58.742Z,72.38
2023-03-11T10:30:58.752Z,72.66
2023-03-11T10:31:58.795Z,73.14
2023-03-11T10:32:58.771Z,73.33
2023-03-11T10:33:58.769Z,73.27
2023-03-11T10:34:58.771Z,73.36
2023-03-11T10:35:58.840Z,72.35
2023-03-11T10:36:58.785Z,71.97
2023-03-11T10:37:58.793Z,71.88
2023-03-11T10:38:58.800Z,71.88
2023-03-11T10:39:58.859Z,71.50
2023-03-11T10:40:58.811Z,70.68
2023-03-11T10:41:58.818Z,70.39
2023-03-11T10:42:58.825Z,70.24
2023-03-11T10:43:58.855Z,69.00
2023-03-11T10:44:58.838Z,68.46
2023-03-11T10:45:58.864Z,68.08
2023-03-11T10:46:58.852Z,68.30
2023-03-11T10:47:58.866Z,67.58
2023-03-11T10:48:58.866Z,66.66
2023-03-11T10:49:58.875Z,65.74
2023-03-11T10:50:58.881Z,63.92
2023-03-11T10:51:58.888Z,62.97
2023-03-11T10:52:58.909Z,62.71
2023-03-11T10:53:58.918Z,63.29
2023-03-11T10:54:58.948Z,61.79
2023-03-11T10:55:58.932Z,59.22
2023-03-11T10:56:58.946Z,60.14
2023-03-11T10:57:58.956Z,60.42
2023-03-11T10:58:58.967Z,61.16
2023-03-11T10:59:58.991Z,61.16
2023-03-11T11:00:59.004Z,60.87
2023-03-11T11:01:58.996Z,60.02
2023-03-11T11:02:59.002Z,59.82
2023-03-11T11:03:59.039Z,60.17
2023-03-11T11:04:59.027Z,60.94
2023-03-11T11:05:59.049Z,61.89
2023-03-11T11:06:59.058Z,61.19
2023-03-11T11:07:59.065Z,61.54
2023-03-11T11:08:59.076Z,62.40
2023-03-11T11:09:59.086Z,62.85
2023-03-11T11:10:59.094Z,62.81
2023-03-11T11:11:59.103Z,63.48
2023-03-11T11:12:59.162Z,63.54
2023-03-11T11:13:59.121Z,64.40
2023-03-11T11:14:59.131Z,64.65
2023-03-11T11:15:59.158Z,65.51
2023-03-11T11:16:59.209Z,65.32
2023-03-11T11:17:59.161Z,65.95
2023-03-11T11:18:59.160Z,66.80
2023-03-11T11:19:59.185Z,67.09
2023-03-11T11:20:59.175Z,67.19
2023-03-11T11:21:59.191Z,67.72
2023-03-11T11:22:59.202Z,68.01
2023-03-11T11:23:59.197Z,68.96
2023-03-11T11:24:59.232Z,69.24
2023-03-11T11:25:59.210Z,69.91
2023-03-11T11:26:59.225Z,70.57
2023-03-11T11:27:59.229Z,70.95
2023-03-11T11:28:59.234Z,71.04
2023-03-11T11:29:59.239Z,71.62
2023-03-11T11:30:59.319Z,71.39
2023-03-11T11:31:59.271Z,71.86
2023-03-11T11:32:59.325Z,72.34
2023-03-11T11:33:59.258Z,72.34
2023-03-11T11:34:59.259Z,72.25
2023-03-11T11:35:59.275Z,72.53
2023-03-11T11:36:59.271Z,72.34
2023-03-11T11:37:59.281Z,72.28
2023-03-11T11:38:59.290Z,71.81
2023-03-11T11:39:59.290Z,71.94
2023-03-11T11:40:59.299Z,71.66
2023-03-11T11:41:59.329Z,70.54
2023-03-11T11:42:59.334Z,69.60
2023-03-11T11:43:59.313Z,68.93
2023-03-11T11:44:59.336Z,68.55
2023-03-11T11:45:59.352Z,68.07
2023-03-11T11:46:59.339Z,67.41
2023-03-11T11:47:59.383Z,68.01
2023-03-11T11:48:59.367Z,68.07
2023-03-11T11:49:59.357Z,68.40
2023-03-11T11:50:59.352Z,68.74
2023-03-11T11:51:59.377Z,68.84
2023-03-11T11:52:59.367Z,68.49
2023-03-11T11:53:59.384Z,68.30
2023-03-11T11:54:59.396Z,68.36
2023-03-11T11:55:59.397Z,67.92
2023-03-11T11:56:59.395Z,67.67
2023-03-11T11:57:59.402Z,67.19
2023-03-11T11:58:59.416Z,66.14
2023-03-11T11:59:59.428Z,66.14
2023-03-11T12:00:59.428Z,65.86
2023-03-11T12:01:59.443Z,65.42
2023-03-11T12:02:59.447Z,65.13
2023-03-11T12:03:59.576Z,64.18
2023-03-11T12:04:59.461Z,63.13
2023-03-11T12:05:59.607Z,62.72
2023-03-11T12:06:59.484Z,62.81
2023-03-11T12:07:59.495Z,63.96
2023-03-11T12:08:59.502Z,64.02
2023-03-11T12:10:01.968Z,64.40
2023-03-11T12:10:59.519Z,64.43
2023-03-11T12:11:59.519Z,64.21
2023-03-11T12:12:59.528Z,64.53
2023-03-11T12:13:59.579Z,64.24
2023-03-11T12:14:59.552Z,63.57
2023-03-11T12:15:59.596Z,63.54
2023-03-11T12:17:00.221Z,63.20
2023-03-11T12:17:59.571Z,63.96
2023-03-11T12:18:59.575Z,64.15
2023-03-11T12:19:59.614Z,63.20
2023-03-11T12:20:59.602Z,63.10
2023-03-11T12:21:59.606Z,63.10
2023-03-11T12:22:59.621Z,62.91
2023-03-11T12:23:59.629Z,63.76
2023-03-11T12:24:59.632Z,63.67
2023-03-11T12:25:59.636Z,62.91
2023-03-11T12:26:59.655Z,63.32
2023-03-11T12:27:59.665Z,62.85
2023-03-11T12:28:59.697Z,62.12
2023-03-11T12:29:59.712Z,61.64
2023-03-11T12:30:59.728Z,61.45
2023-03-11T12:33:07.292Z,62.02
2023-03-11T12:34:07.309Z,61.25
2023-03-11T12:35:07.335Z,61.35
2023-03-11T12:36:07.367Z,61.42
2023-03-11T12:37:07.334Z,61.80
2023-03-11T12:38:07.345Z,61.70
2023-03-11T12:39:07.363Z,61.90
2023-03-11T12:40:07.371Z,61.29
2023-03-11T12:41:07.391Z,61.58
2023-03-11T12:42:07.389Z,61.13
2023-03-11T12:43:07.392Z,61.22
2023-03-11T12:44:07.407Z,61.22
2023-03-11T12:45:07.409Z,61.13
2023-03-11T12:46:07.430Z,61.22
2023-03-11T12:47:07.442Z,59.70
2023-03-11T12:48:07.439Z,59.99
2023-03-11T12:49:07.458Z,60.27
2023-03-11T12:50:07.461Z,59.89
2023-03-11T12:51:07.509Z,59.51
2023-03-11T12:56:51.735Z,57.82
2023-03-11T12:57:51.744Z,58.14
2023-03-11T12:58:51.754Z,58.14
2023-03-11T12:59:51.760Z,57.67
2023-03-11T13:00:51.772Z,57.60
2023-03-11T13:01:51.843Z,57.41
2023-03-11T13:02:51.872Z,57.50
2023-03-11T13:03:51.826Z,56.93
2023-03-11T13:04:51.838Z,57.03
2023-03-11T13:05:51.836Z,56.65
2023-03-11T13:06:51.883Z,56.07
2023-03-11T13:07:51.873Z,56.36
2023-03-11T13:08:51.902Z,57.03
2023-03-11T13:09:51.894Z,54.83
2023-03-11T13:10:51.912Z,55.02
2023-03-11T13:11:51.918Z,55.21
2023-03-11T13:12:51.940Z,55.02
2023-03-11T13:13:51.953Z,54.52
2023-03-11T13:14:51.966Z,55.28
2023-03-11T13:15:52.040Z,54.97
2023-03-11T13:16:51.994Z,54.78
2023-03-11T13:17:52.002Z,54.94
2023-03-11T13:18:52.041Z,55.32
2023-03-11T13:19:52.027Z,55.70
2023-03-11T13:20:52.059Z,55.68
2023-03-11T13:21:52.049Z,56.15
2023-03-11T13:22:52.082Z,56.72
2023-03-11T13:23:52.073Z,56.53
2023-03-11T13:24:52.107Z,56.82
2023-03-11T13:25:52.106Z,57.39
2023-03-11T13:26:52.122Z,57.29
2023-03-11T13:27:52.129Z,57.48
2023-03-11T13:28:52.141Z,57.29
2023-03-11T13:29:52.156Z,56.82
2023-03-11T13:30:52.167Z,56.72
2023-03-11T13:31:52.211Z,56.70
2023-03-11T13:32:52.236Z,56.70
2023-03-11T13:33:52.204Z,57.17
2023-03-11T13:34:52.212Z,57.45
2023-03-11T13:35:52.253Z,57.93
2023-03-11T13:36:52.226Z,58.37
2023-03-11T13:37:52.256Z,58.76
2023-03-11T13:38:52.277Z,59.14
2023-03-11T13:39:52.268Z,59.71
2023-03-11T13:40:52.272Z,59.05
2023-03-11T13:41:52.286Z,59.33
2023-03-11T13:42:52.291Z,59.23
2023-03-11T13:43:52.307Z,59.52
2023-03-11T13:44:52.316Z,59.80
2023-03-11T13:45:52.367Z,60.47
2023-03-11T13:46:52.335Z,60.47
2023-03-11T13:47:52.346Z,59.80
2023-03-11T13:48:52.348Z,60.38
2023-03-11T13:49:52.361Z,60.09
2023-03-11T13:50:52.373Z,59.61
2023-03-11T13:51:52.421Z,60.09
2023-03-11T13:52:52.385Z,59.90
2023-03-11T13:53:52.400Z,59.80
2023-03-11T13:54:52.447Z,59.80
2023-03-11T13:55:52.418Z,59.80
2023-03-11T13:56:52.426Z,60.12
2023-03-11T13:57:52.438Z,59.83
2023-03-11T13:58:52.464Z,59.93
2023-03-11T13:59:52.465Z,59.83
2023-03-11T14:00:52.536Z,58.98
2023-03-11T14:01:52.495Z,58.98
2023-03-11T14:02:52.504Z,59.64
2023-03-11T14:03:52.544Z,59.83
2023-03-11T14:04:52.519Z,59.64
2023-03-11T14:05:52.539Z,59.83
2023-03-11T14:06:52.554Z,59.93
2023-03-11T14:07:52.565Z,60.12
2023-03-11T14:08:52.572Z,59.83
2023-03-11T14:09:52.591Z,60.02
2023-03-11T14:10:52.626Z,60.12
2023-03-11T14:11:52.614Z,60.12
2023-03-11T14:12:52.635Z,59.55
2023-03-11T14:13:52.636Z,59.27
2023-03-11T14:14:52.657Z,59.45
2023-03-11T14:15:52.661Z,59.55
2023-03-11T14:16:52.697Z,59.42
2023-03-11T14:17:52.694Z,59.52
2023-03-11T14:18:52.700Z,59.42
2023-03-11T14:19:52.712Z,59.33
2023-03-11T14:20:52.825Z,59.71
2023-03-11T14:21:52.744Z,60.18
2023-03-11T14:22:52.756Z,60.75
2023-03-11T14:23:52.757Z,60.85
2023-03-11T14:24:52.774Z,61.04
2023-03-11T14:25:52.785Z,61.42
2023-03-11T14:26:52.828Z,61.13
2023-03-11T14:27:52.812Z,61.42
2023-03-11T14:30:35.380Z,61.42
2023-03-11T14:31:35.451Z,61.61
2023-03-11T14:32:35.503Z,61.23
2023-03-11T14:33:35.432Z,61.61
2023-03-11T14:34:35.430Z,61.52
2023-03-11T14:35:35.482Z,61.32
2023-03-11T14:36:35.463Z,61.42
2023-03-11T14:37:35.485Z,61.04
2023-03-11T14:38:35.491Z,61.13
2023-03-11T14:39:35.495Z,60.66
2023-03-11T14:40:35.515Z,60.47
2023-03-11T14:41:35.527Z,60.75
2023-03-11T14:42:35.584Z,61.23
2023-03-11T14:43:35.549Z,61.42
2023-03-11T14:44:35.566Z,61.32
2023-03-11T14:45:35.611Z,61.90
2023-03-11T14:46:35.587Z,61.99
2023-03-11T14:47:35.614Z,61.23
2023-03-11T14:48:35.610Z,61.32
2023-03-11T14:49:35.631Z,61.90
2023-03-11T14:50:35.644Z,61.90
2023-03-11T14:51:35.666Z,61.99
2023-03-11T14:52:35.662Z,61.80
2023-03-11T14:53:35.688Z,61.90
2023-03-11T14:54:35.687Z,61.99
2023-03-11T14:55:35.707Z,61.80
2023-03-11T14:56:35.741Z,61.52
2023-03-11T14:57:35.729Z,60.75
2023-03-11T14:58:35.842Z,60.38
2023-03-11T14:59:35.763Z,60.35
2023-03-11T15:00:35.774Z,60.82
2023-03-11T15:01:35.809Z,61.10
2023-03-11T15:02:35.793Z,61.48
2023-03-11T15:03:35.944Z,62.15
2023-03-11T15:04:35.823Z,61.96
2023-03-11T15:05:35.837Z,61.77
2023-03-11T15:06:35.858Z,62.62
2023-03-11T15:07:35.857Z,62.62
2023-03-11T15:08:35.870Z,63.10
2023-03-11T15:09:35.885Z,63.48
2023-03-11T15:10:35.985Z,63.64
2023-03-11T15:11:35.900Z,63.64
2023-03-11T15:12:35.926Z,63.83
2023-03-11T15:13:35.927Z,63.35
2023-03-11T15:14:35.962Z,63.45
2023-03-11T15:15:35.939Z,63.64
2023-03-11T15:16:36.000Z,63.64
2023-03-11T15:17:42.779Z,63.73
2023-03-11T15:18:35.975Z,64.02
2023-03-11T15:19:35.980Z,63.64
2023-03-11T15:20:36.203Z,63.92
2023-03-11T15:21:36.001Z,63.83
2023-03-11T15:22:36.016Z,63.54
2023-03-11T15:23:36.041Z,63.54
2023-03-11T15:24:36.028Z,63.73
2023-03-11T15:25:36.044Z,63.45
2023-03-11T15:26:36.045Z,63.45
2023-03-11T15:27:36.073Z,64.30
2023-03-11T15:28:36.075Z,64.30
2023-03-11T15:29:36.086Z,64.30
2023-03-11T15:30:36.211Z,63.92
2023-03-11T15:31:36.096Z,64.30
2023-03-11T15:32:36.161Z,63.92
2023-03-11T15:33:36.111Z,63.98
2023-03-11T15:34:36.120Z,63.92
2023-03-11T15:35:36.177Z,64.46
2023-03-11T15:36:36.136Z,64.84
2023-03-11T15:37:36.150Z,64.46
2023-03-11T15:38:36.153Z,64.46
2023-03-11T15:39:36.166Z,64.65
2023-03-11T15:40:45.305Z,64.84
2023-03-11T15:41:36.179Z,64.46
2023-03-11T15:42:36.188Z,64.56
2023-03-11T15:43:36.203Z,64.46
2023-03-11T15:44:36.241Z,64.94
2023-03-11T15:45:36.205Z,65.03
2023-03-11T15:46:36.324Z,65.03
2023-03-11T15:47:36.271Z,65.03
2023-03-11T15:48:36.232Z,64.94
2023-03-11T15:49:36.241Z,65.22
2023-03-11T15:50:52.142Z,65.41
2023-03-11T15:51:36.263Z,65.41
2023-03-11T15:52:36.270Z,65.60
2023-03-11T15:53:36.269Z,65.41
2023-03-11T15:54:36.290Z,65.22
2023-03-11T15:55:36.294Z,65.50
2023-03-11T15:56:36.290Z,65.88
2023-03-11T15:57:36.297Z,65.88
2023-03-11T15:58:36.308Z,66.36
2023-03-11T15:59:36.312Z,66.36
2023-03-11T16:00:36.323Z,66.27
2023-03-11T16:01:36.326Z,66.64
2023-03-11T16:02:36.361Z,66.17
2023-03-11T16:03:36.370Z,66.55
2023-03-11T16:04:36.459Z,66.74
2023-03-11T16:05:36.354Z,66.74
2023-03-11T16:06:36.366Z,66.55
2023-03-11T16:07:39.857Z,67.02
2023-03-11T16:08:36.372Z,67.02
2023-03-11T16:09:36.385Z,67.21
2023-03-11T16:10:36.386Z,67.31
2023-03-11T16:11:36.398Z,67.21
2023-03-11T16:12:36.412Z,67.50
2023-03-11T16:13:36.411Z,67.50
2023-03-11T16:14:36.408Z,67.50
2023-03-11T16:15:36.457Z,67.21
2023-03-11T16:16:36.428Z,67.59
2023-03-11T16:17:49.024Z,67.12
2023-03-11T16:18:36.449Z,67.12
2023-03-11T16:19:36.443Z,67.31
2023-03-11T16:20:36.447Z,67.21
2023-03-11T16:21:36.462Z,67.31
2023-03-11T16:22:36.470Z,67.40
2023-03-11T16:23:50.749Z,67.31
2023-03-11T16:24:36.470Z,67.31
2023-03-11T16:25:36.475Z,67.08
2023-03-11T16:26:36.474Z,67.21
2023-03-11T16:27:36.498Z,67.50
2023-03-11T16:28:36.481Z,67.37
2023-03-11T16:29:36.499Z,67.75
2023-03-11T16:30:36.492Z,67.75
2023-03-11T16:31:36.573Z,67.75
2023-03-11T16:32:36.608Z,67.85
2023-03-11T16:33:36.514Z,68.32
2023-03-11T16:34:36.543Z,68.04
2023-03-11T16:35:36.564Z,68.13
2023-03-11T16:36:36.519Z,67.94
2023-03-11T16:37:36.521Z,68.41
2023-03-11T16:38:36.529Z,68.41
2023-03-11T16:39:36.530Z,68.98
2023-03-11T16:40:36.545Z,68.89
2023-03-11T16:41:36.545Z,69.17
2023-03-11T16:42:36.553Z,68.98
2023-03-11T16:43:36.548Z,68.98
2023-03-11T16:44:36.565Z,69.08
2023-03-11T16:45:36.564Z,69.17
2023-03-11T16:46:36.598Z,69.46
2023-03-11T16:47:36.572Z,69.46
2023-03-11T16:48:36.571Z,69.55
2023-03-11T16:49:36.582Z,69.36
2023-03-11T16:50:37.693Z,70.12
2023-03-11T16:51:36.590Z,69.84
2023-03-11T16:52:36.712Z,70.31
2023-03-11T16:53:36.597Z,70.21
2023-03-11T16:54:36.595Z,70.50
2023-03-11T16:55:36.605Z,70.78
2023-03-11T16:56:36.611Z,70.40
2023-03-11T16:57:36.613Z,70.78
2023-03-11T16:58:36.618Z,71.17
2023-03-11T16:59:36.621Z,70.69
2023-03-11T17:00:36.627Z,70.88
2023-03-11T17:01:36.647Z,70.98
2023-03-11T17:02:36.626Z,71.36
2023-03-11T17:03:42.521Z,71.45
2023-03-11T17:04:36.654Z,71.73
2023-03-11T17:05:36.643Z,71.55
2023-03-11T17:06:36.670Z,71.73
2023-03-11T17:07:39.286Z,72.11
2023-03-11T17:08:36.656Z,72.11
2023-03-11T17:09:36.656Z,72.40
2023-03-11T17:10:36.689Z,72.59
2023-03-11T17:11:36.667Z,72.40
2023-03-11T17:12:36.675Z,72.49
2023-03-11T17:13:36.665Z,72.40
2023-03-11T17:14:36.673Z,72.68
2023-03-11T17:15:36.681Z,72.68
2023-03-11T17:16:36.716Z,72.88
2023-03-11T17:17:36.693Z,72.78
2023-03-11T17:18:36.684Z,73.25
2023-03-11T17:19:36.690Z,73.22
2023-03-11T17:20:36.694Z,73.16
2023-03-11T17:21:36.708Z,72.97
2023-03-11T17:22:36.726Z,73.50
2023-03-11T17:23:36.720Z,73.31
2023-03-11T17:24:36.708Z,73.60
2023-03-11T17:25:36.716Z,73.50
2023-03-11T17:26:36.715Z,73.50
2023-03-11T17:27:36.732Z,73.69
2023-03-11T17:28:36.730Z,73.88
2023-03-11T17:29:36.741Z,73.03
2023-03-11T17:30:37.586Z,73.79
2023-03-11T17:31:36.843Z,73.50
2023-03-11T17:32:36.779Z,73.50
2023-03-11T17:33:36.746Z,73.41
2023-03-11T17:34:36.748Z,73.60
2023-03-11T17:35:36.793Z,73.69
2023-03-11T17:36:36.754Z,73.50
2023-03-11T17:37:36.757Z,73.60
2023-03-11T17:38:36.779Z,73.88
2023-03-11T17:39:36.757Z,73.79
2023-03-11T17:40:36.763Z,73.69
2023-03-11T17:41:36.761Z,73.79
2023-03-11T17:42:36.766Z,73.79
2023-03-11T17:43:36.773Z,73.88
2023-03-11T17:44:50.693Z,73.79
2023-03-11T17:45:36.781Z,73.88
2023-03-11T17:46:36.869Z,73.79
2023-03-11T17:47:36.851Z,73.97
2023-03-11T17:48:36.790Z,73.97
2023-03-11T17:49:36.811Z,74.07
2023-03-11T17:50:36.796Z,74.07
2023-03-11T17:51:36.828Z,73.79
2023-03-11T17:52:36.795Z,73.88
2023-03-11T17:53:36.802Z,74.07
2023-03-11T17:54:36.835Z,74.16
2023-03-11T17:55:36.808Z,73.97
2023-03-11T17:56:36.830Z,73.97
2023-03-11T17:57:45.190Z,74.16
2023-03-11T17:58:36.822Z,74.07
2023-03-11T17:59:36.955Z,73.97
2023-03-11T18:00:36.822Z,73.88
2023-03-11T18:01:36.836Z,73.88
2023-03-11T18:02:36.851Z,73.97
2023-03-11T18:03:36.888Z,73.88
2023-03-11T18:04:36.834Z,73.88
2023-03-11T18:05:36.867Z,73.97
2023-03-11T18:06:36.830Z,73.88
2023-03-11T18:07:36.846Z,74.07
2023-03-11T18:08:36.854Z,74.07
2023-03-11T18:09:36.848Z,74.07
2023-03-11T18:10:36.868Z,74.26
2023-03-11T18:11:36.851Z,74.07
2023-03-11T18:12:36.854Z,73.97
2023-03-11T18:13:36.851Z,73.88
2023-03-11T18:14:36.886Z,73.88
2023-03-11T18:15:36.854Z,73.41
2023-03-11T18:16:36.922Z,73.50
2023-03-11T18:17:36.870Z,73.79
2023-03-11T18:18:36.874Z,73.79
2023-03-11T18:19:36.872Z,73.12
2023-03-11T18:20:36.870Z,73.88
2023-03-11T18:21:36.907Z,73.69
2023-03-11T18:22:38.585Z,73.69
2023-03-11T18:23:36.875Z,73.50
2023-03-11T18:24:36.886Z,73.50
2023-03-11T18:25:36.879Z,73.69
2023-03-11T18:26:36.916Z,73.69
2023-03-11T18:27:36.919Z,73.60
2023-03-11T18:28:36.895Z,73.31
2023-03-11T18:29:36.898Z,73.41
2023-03-11T18:30:36.903Z,73.27
2023-03-11T18:31:36.959Z,73.22
2023-03-11T18:32:36.938Z,72.93
2023-03-11T18:33:36.929Z,72.93
2023-03-11T18:34:36.906Z,73.12
2023-03-11T18:35:36.935Z,72.93
2023-03-11T18:36:36.919Z,72.93
2023-03-11T18:37:36.920Z,73.31
2023-03-11T18:38:36.928Z,73.41
2023-03-11T18:39:36.917Z,73.31
2023-03-11T18:40:36.923Z,72.93
2023-03-11T18:41:36.928Z,73.31
2023-03-11T18:42:36.958Z,73.31
2023-03-11T18:43:36.938Z,73.41
2023-03-11T18:44:37.122Z,73.60
2023-03-11T18:45:36.936Z,73.60
2023-03-11T18:46:36.940Z,73.65
2023-03-11T18:47:36.954Z,73.79
2023-03-11T18:48:36.943Z,73.69
2023-03-11T18:49:36.944Z,73.46
2023-03-11T18:50:36.954Z,73.65
2023-03-11T18:51:36.948Z,73.56
2023-03-11T18:52:36.956Z,73.27
2023-03-11T18:53:36.965Z,73.18
2023-03-11T18:54:36.961Z,73.18
2023-03-11T18:55:36.964Z,73.18
2023-03-11T18:56:36.964Z,73.46
2023-03-11T18:57:36.963Z,73.46
2023-03-11T18:58:36.993Z,73.56
2023-03-11T18:59:36.969Z,73.65
2023-03-11T19:00:36.975Z,73.75
2023-03-11T19:01:37.090Z,73.84
2023-03-11T19:02:36.986Z,73.94
2023-03-11T19:03:36.985Z,74.22
2023-03-11T19:04:37.027Z,73.84
2023-03-11T19:05:37.001Z,73.84
2023-03-11T19:06:36.996Z,74.03
2023-03-11T19:07:36.997Z,74.13
2023-03-11T19:08:37.002Z,74.88
2023-03-11T19:09:37.004Z,74.60
2023-03-11T19:10:37.002Z,74.60
2023-03-11T19:11:37.001Z,74.51
2023-03-11T19:12:37.010Z,74.69
2023-03-11T19:13:46.357Z,74.51
2023-03-11T19:14:37.027Z,74.98
2023-03-11T19:15:37.018Z,75.07
2023-03-11T19:16:37.106Z,75.17
2023-03-11T19:17:37.020Z,74.88
2023-03-11T19:18:37.014Z,75.45
2023-03-11T19:19:37.037Z,75.55
2023-03-11T19:20:37.034Z,75.45
2023-03-11T19:21:37.024Z,75.17
2023-03-11T19:22:37.042Z,75.07
2023-03-11T19:23:37.027Z,75.17
2023-03-11T19:24:37.032Z,75.55
2023-03-11T19:25:37.041Z,75.26
2023-03-11T19:26:44.795Z,75.36
2023-03-11T19:27:37.041Z,75.55
2023-03-11T19:28:37.066Z,75.45
2023-03-11T19:29:37.041Z,75.45
2023-03-11T19:30:37.140Z,75.26
2023-03-11T19:31:37.046Z,75.45
2023-03-11T19:32:37.170Z,75.36
2023-03-11T19:33:37.056Z,75.36
2023-03-11T19:34:37.052Z,75.45
2023-03-11T19:35:37.089Z,75.55
2023-03-11T19:36:37.057Z,75.26
2023-03-11T19:37:37.064Z,75.55
2023-03-11T19:38:37.064Z,75.93
2023-03-11T19:39:37.062Z,75.93
2023-03-11T19:40:37.069Z,76.12
2023-03-11T19:41:37.084Z,75.93
2023-03-11T19:42:37.072Z,75.74
2023-03-11T19:43:37.092Z,76.03
2023-03-11T19:44:37.077Z,76.03
2023-03-11T19:45:37.080Z,76.03
2023-03-11T19:46:37.163Z,76.03
2023-03-11T19:47:37.100Z,76.03
2023-03-11T19:49:39.710Z,75.74
2023-03-11T19:50:39.672Z,76.21
2023-03-11T19:51:49.565Z,76.21
2023-03-11T19:52:39.673Z,75.84
2023-03-11T19:53:39.689Z,76.12
2023-03-11T19:54:39.670Z,75.93
2023-03-11T19:55:39.697Z,76.03
2023-03-11T19:56:39.668Z,76.21
2023-03-11T19:57:39.687Z,76.03
2023-03-11T19:58:39.693Z,75.74
2023-03-11T19:59:39.710Z,75.74
2023-03-11T20:00:39.678Z,76.03
2023-03-11T20:01:39.699Z,76.03
2023-03-11T20:02:39.730Z,76.12
2023-03-11T20:03:39.683Z,75.84
2023-03-11T20:04:42.950Z,76.03
2023-03-11T20:05:39.693Z,76.03
2023-03-11T20:06:39.747Z,76.21
2023-03-11T20:07:39.697Z,75.84
2023-03-11T20:08:39.691Z,76.12
2023-03-11T20:09:39.700Z,76.03
2023-03-11T20:30:18.563Z,76.59
2023-03-11T20:31:18.662Z,76.78
2023-03-11T20:32:18.596Z,76.87
2023-03-11T20:33:18.603Z,76.87
2023-03-11T20:34:18.617Z,76.87
2023-03-11T20:35:18.551Z,77.06
2023-03-11T20:36:18.621Z,76.68
2023-03-11T20:37:18.537Z,76.78
2023-03-11T20:38:18.591Z,76.50
2023-03-11T20:39:18.664Z,76.50
2023-03-11T20:40:18.533Z,76.68
2023-03-11T20:41:18.582Z,76.65
2023-03-11T20:42:18.542Z,76.46
2023-03-11T20:43:18.552Z,76.84
2023-03-11T20:44:18.537Z,76.36
2023-03-11T20:45:18.560Z,76.74
2023-03-11T20:46:18.767Z,77.03
2023-03-11T20:47:18.656Z,76.55
2023-03-11T20:48:18.605Z,76.65
2023-03-11T20:49:18.543Z,76.84
2023-03-11T20:50:18.551Z,76.46
2023-03-11T20:51:18.670Z,76.65
2023-03-11T20:52:18.545Z,76.84
2023-03-11T20:53:18.624Z,76.84
2023-03-11T20:54:18.615Z,76.55
2023-03-11T20:55:18.544Z,76.65
2023-03-11T20:56:18.600Z,76.65
2023-03-11T20:57:18.552Z,76.65
2023-03-11T20:58:18.639Z,76.65
2023-03-11T20:59:18.574Z,76.93
2023-03-11T21:00:18.653Z,76.74
2023-03-11T21:01:18.667Z,76.74
2023-03-11T21:02:18.638Z,76.93
2023-03-11T21:03:18.661Z,76.65
2023-03-11T21:04:18.626Z,76.84
2023-03-11T21:05:18.685Z,76.84
2023-03-11T21:06:18.692Z,76.84
2023-03-11T21:07:18.589Z,76.84
2023-03-11T21:08:18.614Z,77.40
2023-03-11T21:09:18.670Z,76.74
2023-03-11T21:10:18.568Z,76.84
2023-03-11T21:11:18.567Z,77.03
2023-03-11T21:12:18.574Z,77.03
2023-03-11T21:13:18.569Z,76.84
2023-03-11T21:14:18.598Z,76.84
2023-03-11T21:15:18.713Z,76.65
2023-03-11T21:16:18.657Z,76.84
2023-03-11T21:17:18.765Z,76.93
2023-03-11T21:18:18.618Z,76.84
2023-03-11T21:19:18.718Z,77.12
2023-03-11T21:20:18.698Z,76.55
2023-03-11T21:21:18.596Z,76.65
2023-03-11T21:22:18.639Z,76.65
2023-03-11T21:23:18.578Z,76.84
2023-03-11T21:24:18.670Z,77.31
2023-03-11T21:25:18.601Z,77.03
2023-03-11T21:26:18.658Z,77.12
2023-03-11T21:27:18.677Z,77.12
2023-03-11T21:28:18.603Z,76.65
2023-03-11T21:29:18.592Z,76.84
2023-03-11T21:30:18.589Z,76.84
2023-03-11T21:31:18.749Z,76.17
2023-03-11T21:32:18.837Z,76.46
2023-03-11T21:33:18.645Z,76.55
2023-03-11T21:34:18.685Z,76.55
2023-03-11T21:35:18.607Z,76.65
2023-03-11T21:36:18.695Z,76.55
2023-03-11T21:37:18.710Z,76.55
2023-03-11T21:38:18.777Z,76.84
2023-03-11T21:39:18.604Z,76.46
2023-03-11T21:40:18.713Z,76.27
2023-03-11T21:41:18.611Z,76.27
2023-03-11T21:42:18.665Z,76.17
2023-03-11T21:43:18.684Z,76.08
2023-03-11T21:44:18.632Z,76.17
2023-03-11T21:45:18.611Z,76.55
2023-03-11T21:46:18.675Z,76.55
2023-03-11T21:47:18.716Z,76.65
2023-03-11T21:48:18.732Z,76.55
2023-03-11T21:49:18.778Z,76.55
2023-03-11T21:50:18.637Z,76.36
2023-03-11T21:51:18.616Z,76.36
2023-03-11T21:52:18.764Z,76.55
2023-03-11T21:53:18.624Z,76.55
2023-03-11T21:54:18.685Z,76.55
2023-03-11T21:55:18.721Z,76.55
2023-03-11T21:56:18.739Z,76.74
2023-03-11T21:57:18.710Z,76.55
2023-03-11T21:58:18.684Z,76.93
2023-03-11T21:59:18.652Z,77.22
2023-03-11T22:00:18.646Z,77.22
2023-03-11T22:01:18.819Z,77.03
2023-03-11T22:02:18.739Z,77.40
2023-03-11T22:03:18.699Z,77.31
2023-03-11T22:04:18.900Z,77.03
2023-03-11T22:05:18.768Z,77.22
2023-03-11T22:06:18.693Z,77.22
2023-03-11T22:07:18.794Z,77.31
2023-03-11T22:08:18.635Z,77.22
2023-03-11T22:09:18.634Z,77.31
2023-03-11T22:10:18.664Z,77.50
2023-03-11T22:11:18.881Z,77.22
2023-03-11T22:12:18.770Z,77.22
2023-03-11T22:13:18.797Z,77.31
2023-03-11T22:14:18.781Z,77.12
2023-03-11T22:15:18.845Z,77.22
2023-03-11T22:16:18.739Z,77.50
2023-03-11T22:17:18.784Z,77.59
2023-03-11T22:18:18.738Z,77.50
2023-03-11T22:19:18.650Z,77.40
2023-03-11T22:20:18.703Z,77.12
2023-03-11T22:21:18.708Z,77.31
2023-03-11T22:22:18.666Z,77.40
2023-03-11T22:23:18.643Z,77.31
2023-03-11T22:24:18.642Z,77.03
2023-03-11T22:25:18.658Z,77.22
2023-03-11T22:26:18.656Z,77.12
2023-03-11T22:27:18.665Z,77.22
2023-03-11T22:28:18.656Z,77.18
2023-03-11T22:29:18.660Z,77.65
2023-03-11T22:30:18.661Z,77.65
2023-03-11T22:31:18.823Z,77.40
2023-03-11T22:32:18.685Z,77.50
2023-03-11T22:33:18.656Z,77.75
2023-03-11T22:34:18.666Z,77.46
2023-03-11T22:35:18.667Z,77.56
2023-03-11T22:36:18.661Z,77.75
2023-03-11T22:37:18.668Z,77.75
2023-03-11T22:38:18.697Z,78.13
2023-03-11T22:39:18.664Z,77.94
2023-03-11T22:40:18.668Z,77.84
2023-03-11T22:41:18.673Z,77.94
2023-03-11T22:42:18.677Z,77.94
2023-03-11T22:43:18.688Z,77.75
2023-03-11T22:44:18.674Z,77.75